首页
METAR-TAF:

METAR-TAF

机场 :

Hancock, 密歇根州, 美国

纬度: 47-10-06N, 经度: 088-29-20W, 海拔: 334米

当前天气观测

该预报发布于24分钟前的06:53 UTC
静风
温度 7°C
湿度 87%
气压 1005 hPa
能見度: 16.1公里
天空无云

METAR: KCMX 200653Z AUTO 00000KT 10SM CLR 07/05 A2968 RMK AO2 SLP055 T00720050 $

时间: 03:17 (07:17 UTC)

预报

该预报发布于38分钟前的06:39 UTC
预报有效从20日的 07点(UTC)到 21日的 06点(UTC)
风速6节,风向西转西南
能見度: 4.8公里
天空无云
轻雾
短暂存在
从 20日的 07点(UTC)到 20日的 09点(UTC)
能見度: 0.8公里
层高于100英尺
从 20日的 0900点(UTC)
风速7节,风向西
能見度: 10公里
天空无云
从 20日的 2200点(UTC)
风速3节,风向多变
能見度: 10公里
天空无云
从 21日的 0200点(UTC)
风速7节,风向
能見度: 10公里
多云层高于15000英尺

TAF: KCMX 200639Z 2007/2106 25006KT 3SM BR SKC TEMPO 2007/2009 1/2SM FG VV001 FM200900 27007KT P6SM SKC FM202200 VRB03KT P6SM SKC FM210200 10007KT P6SM BKN150

超过4000个机场的气象观测和天气预报(METAR&TAF报告)。

可查询的气象台以黄色和红色小点在地图上表示。

将鼠标移到小点上方,可查看气象台名称。

然后点击查看天气观测和预报。

如需切换地图:点击带黑十字的绿色按钮放大地图;点击带横线的绿色按钮缩小地图;或者点击绿色箭头查看邻近地区的地图。


METAR-TAF: